createdAt,value
2022-10-17T00:00:41.488Z,18.65
2022-10-17T00:03:08.568Z,20.23
2022-10-17T00:05:35.576Z,17.55
2022-10-17T00:08:02.612Z,14.73
2022-10-17T00:10:29.632Z,20.77
2022-10-17T00:12:57.338Z,20.67
2022-10-17T00:15:24.378Z,15.60
2022-10-17T00:17:51.405Z,20.58
2022-10-17T00:20:18.479Z,25.63
2022-10-17T00:22:45.536Z,18.92
2022-10-17T00:25:12.674Z,25.58
2022-10-17T00:27:40.139Z,20.13
2022-10-17T00:30:07.684Z,18.85
2022-10-17T00:32:34.732Z,21.70
2022-10-17T00:35:01.794Z,22.40
2022-10-17T00:37:28.792Z,18.63
2022-10-17T00:39:55.837Z,19.88
2022-10-17T00:42:25.122Z,26.08
2022-10-17T00:44:58.374Z,20.95
2022-10-17T00:47:25.400Z,18.50
2022-10-17T00:49:52.474Z,22.83
2022-10-17T00:52:20.787Z,22.30
2022-10-17T00:54:49.568Z,18.92
2022-10-17T00:57:16.742Z,21.73
2022-10-17T00:59:43.927Z,19.10
2022-10-17T01:02:13.303Z,24.00
2022-10-17T01:04:41.056Z,18.77
2022-10-17T01:07:08.171Z,20.60
2022-10-17T01:09:35.628Z,22.38
2022-10-17T01:12:02.645Z,18.55
2022-10-17T01:14:31.023Z,17.88
2022-10-17T01:17:03.516Z,17.63
2022-10-17T01:19:49.421Z,16.45
2022-10-17T01:22:18.865Z,22.02
2022-10-17T01:24:49.877Z,15.23
2022-10-17T01:27:28.374Z,24.30
2022-10-17T01:29:58.492Z,17.42
2022-10-17T01:32:33.032Z,16.60
2022-10-17T01:35:20.954Z,18.75
2022-10-17T01:40:28.343Z,18.77
2022-10-17T01:43:01.584Z,19.20
2022-10-17T01:45:28.586Z,23.20
2022-10-17T01:47:55.689Z,18.13
2022-10-17T01:50:33.068Z,22.60
2022-10-17T01:53:01.819Z,22.20
2022-10-17T01:55:30.108Z,19.52
2022-10-17T01:57:58.472Z,16.15
2022-10-17T02:00:26.222Z,20.25
2022-10-17T02:02:54.175Z,19.83
2022-10-17T02:05:22.473Z,18.33
2022-10-17T02:07:49.474Z,17.25
2022-10-17T02:10:18.666Z,16.95
2022-10-17T02:13:03.096Z,19.55
2022-10-17T02:15:47.755Z,20.02
2022-10-17T02:18:14.758Z,16.65
2022-10-17T02:20:45.240Z,22.25
2022-10-17T02:25:42.076Z,21.05
2022-10-17T02:28:12.864Z,22.33
2022-10-17T02:30:45.128Z,16.42
2022-10-17T02:33:13.376Z,15.32
2022-10-17T02:35:42.515Z,18.00
2022-10-17T02:38:09.576Z,24.50
2022-10-17T02:40:36.589Z,19.63
2022-10-17T02:43:03.604Z,17.67
2022-10-17T02:45:35.678Z,16.95
2022-10-17T02:48:06.743Z,18.83
2022-10-17T02:50:43.682Z,13.40
2022-10-17T02:53:12.448Z,18.45
2022-10-17T02:55:41.000Z,20.15
2022-10-17T02:58:08.859Z,18.65
2022-10-17T03:00:35.888Z,16.85
2022-10-17T03:03:02.895Z,19.65
2022-10-17T03:05:30.032Z,14.40
2022-10-17T03:07:57.190Z,16.60
2022-10-17T03:10:24.198Z,18.20
2022-10-17T03:12:51.218Z,14.05
2022-10-17T03:15:18.225Z,19.98
2022-10-17T03:20:17.282Z,16.75
2022-10-17T03:22:44.295Z,21.38
2022-10-17T03:25:11.279Z,14.85
2022-10-17T03:27:38.335Z,16.95
2022-10-17T03:30:05.624Z,18.70
2022-10-17T03:32:33.969Z,19.25
2022-10-17T03:35:00.991Z,21.70
2022-10-17T03:37:28.304Z,18.35
2022-10-17T03:39:55.736Z,19.60
2022-10-17T03:42:22.757Z,17.65
2022-10-17T03:44:49.757Z,20.02
2022-10-17T03:47:16.755Z,12.63
2022-10-17T03:49:43.819Z,15.05
2022-10-17T03:52:13.880Z,12.57
2022-10-17T03:54:41.019Z,15.20
2022-10-17T03:57:08.013Z,22.02
2022-10-17T03:59:35.065Z,13.23
2022-10-17T04:02:02.080Z,14.02
2022-10-17T04:04:29.072Z,18.70
2022-10-17T04:06:56.092Z,19.73
2022-10-17T04:09:23.102Z,16.77
2022-10-17T04:11:50.113Z,13.80
2022-10-17T04:14:17.124Z,20.75
2022-10-17T04:16:44.131Z,18.80
2022-10-17T04:19:12.504Z,11.77
2022-10-17T04:21:39.587Z,21.80
2022-10-17T04:24:06.646Z,21.27
2022-10-17T04:26:33.749Z,17.88
2022-10-17T04:29:00.765Z,19.10
2022-10-17T04:31:27.780Z,14.23
2022-10-17T04:33:54.850Z,17.08
2022-10-17T04:36:23.241Z,16.73
2022-10-17T04:38:50.277Z,22.88
2022-10-17T04:41:18.051Z,20.30
2022-10-17T04:43:48.489Z,16.15
2022-10-17T04:46:18.132Z,15.80
2022-10-17T04:48:45.148Z,16.10
2022-10-17T04:51:13.170Z,15.13
2022-10-17T04:53:40.389Z,17.90
2022-10-17T04:56:10.924Z,15.98
2022-10-17T05:01:05.959Z,14.95
2022-10-17T05:03:33.198Z,18.95
2022-10-17T05:06:00.237Z,14.77
2022-10-17T05:08:27.245Z,15.32
2022-10-17T05:10:54.312Z,17.45
2022-10-17T05:13:21.371Z,13.35
2022-10-17T05:15:48.406Z,16.55
2022-10-17T05:18:15.396Z,15.43
2022-10-17T05:20:42.433Z,12.07
2022-10-17T05:23:09.483Z,13.15
2022-10-17T05:25:36.520Z,10.68
2022-10-17T05:28:03.543Z,14.63
2022-10-17T05:30:35.155Z,11.20
2022-10-17T05:33:04.632Z,15.25
2022-10-17T05:35:31.669Z,14.95
2022-10-17T05:37:59.976Z,11.48
2022-10-17T05:40:26.991Z,18.30
2022-10-17T05:42:54.063Z,15.52
2022-10-17T05:45:21.133Z,10.57
2022-10-17T05:47:48.199Z,21.35
2022-10-17T05:50:15.300Z,15.70
2022-10-17T05:52:45.131Z,18.27
2022-10-17T05:55:14.171Z,10.82
2022-10-17T05:57:41.244Z,17.20
2022-10-17T06:00:08.630Z,16.95
2022-10-17T06:02:35.633Z,9.77
2022-10-17T06:05:02.716Z,12.88
2022-10-17T06:07:29.754Z,12.02
2022-10-17T06:09:58.885Z,15.07
2022-10-17T06:12:26.104Z,14.50
2022-10-17T06:14:53.323Z,15.70
2022-10-17T06:17:20.352Z,12.07
2022-10-17T06:19:47.619Z,16.25
2022-10-17T06:22:14.759Z,11.27
2022-10-17T06:24:42.458Z,14.75
2022-10-17T06:27:11.887Z,15.43
2022-10-17T06:29:39.280Z,21.30
2022-10-17T06:32:08.653Z,12.63
2022-10-17T06:34:38.226Z,17.38
2022-10-17T06:37:05.235Z,17.90
2022-10-17T06:39:33.945Z,15.30
2022-10-17T06:42:01.454Z,12.07
2022-10-17T06:44:31.631Z,11.60
2022-10-17T06:46:59.201Z,14.18
2022-10-17T06:49:26.693Z,12.48
2022-10-17T06:51:53.808Z,12.57
2022-10-17T06:54:20.867Z,10.02
2022-10-17T06:56:47.915Z,14.80
2022-10-17T06:59:15.642Z,11.40
2022-10-17T07:01:46.087Z,12.20
2022-10-17T07:04:14.231Z,23.30
2022-10-17T07:06:41.677Z,17.70
2022-10-17T07:09:09.477Z,21.10
2022-10-17T07:11:36.548Z,19.65
2022-10-17T07:14:03.611Z,14.18
2022-10-17T07:16:30.643Z,8.02
2022-10-17T07:18:57.735Z,7.63
2022-10-17T07:21:24.816Z,12.52
2022-10-17T07:23:51.857Z,11.95
2022-10-17T07:26:19.022Z,10.13
2022-10-17T07:28:46.714Z,14.45
2022-10-17T07:31:17.671Z,9.57
2022-10-17T07:36:16.947Z,12.00
2022-10-17T07:38:43.956Z,9.88
2022-10-17T07:41:11.411Z,13.57
2022-10-17T07:43:38.766Z,7.07
2022-10-17T07:46:06.311Z,9.40
2022-10-17T07:48:33.335Z,9.75
2022-10-17T07:51:04.215Z,13.55
2022-10-17T07:53:31.281Z,10.40
2022-10-17T07:55:58.441Z,6.18
2022-10-17T07:58:25.866Z,8.07
2022-10-17T08:00:53.003Z,10.70
2022-10-17T08:03:20.111Z,4.65
2022-10-17T08:05:47.135Z,7.28
2022-10-17T08:08:17.194Z,11.70
2022-10-17T08:10:44.229Z,8.63
2022-10-17T08:13:11.278Z,8.95
2022-10-17T08:15:38.908Z,11.00
2022-10-17T08:18:05.927Z,8.35
2022-10-17T08:20:33.011Z,15.13
2022-10-17T08:23:00.018Z,16.10
2022-10-17T08:25:27.114Z,9.45
2022-10-17T08:27:54.217Z,7.82
2022-10-17T08:30:21.277Z,7.13
2022-10-17T08:32:48.294Z,11.93
2022-10-17T08:35:15.341Z,6.85
2022-10-17T08:37:42.520Z,9.35
2022-10-17T08:40:36.382Z,7.78
2022-10-17T08:43:09.192Z,7.60
2022-10-17T08:45:49.664Z,11.85
2022-10-17T08:48:18.259Z,4.57
2022-10-17T08:51:02.883Z,8.65
2022-10-17T08:53:37.279Z,7.28
2022-10-17T08:56:43.948Z,7.47
2022-10-17T08:59:12.299Z,5.53
2022-10-17T09:01:39.322Z,7.32
2022-10-17T09:04:12.543Z,7.63
2022-10-17T09:06:47.823Z,12.43
2022-10-17T09:09:30.101Z,6.82
2022-10-17T09:12:11.343Z,6.55
2022-10-17T09:14:38.389Z,7.18
2022-10-17T09:17:16.951Z,6.75
2022-10-17T09:19:45.853Z,3.65
2022-10-17T09:22:14.372Z,6.57
2022-10-17T09:24:53.308Z,8.10
2022-10-17T09:27:24.587Z,5.03
2022-10-17T09:29:53.396Z,7.05
2022-10-17T09:32:22.076Z,6.03
2022-10-17T09:34:49.158Z,7.20
2022-10-17T09:37:16.746Z,6.85
2022-10-17T09:39:43.939Z,7.68
2022-10-17T09:42:13.430Z,9.13
2022-10-17T09:44:48.285Z,6.95
2022-10-17T09:47:32.031Z,6.03
2022-10-17T09:49:59.071Z,4.38
2022-10-17T09:52:28.080Z,6.93
2022-10-17T09:54:56.960Z,7.93
2022-10-17T09:57:24.230Z,4.78
2022-10-17T09:59:58.779Z,5.68
2022-10-17T10:02:26.294Z,5.80
2022-10-17T10:05:09.277Z,10.30
2022-10-17T10:07:37.594Z,3.28
2022-10-17T10:10:05.531Z,7.68
2022-10-17T10:12:35.654Z,7.57
2022-10-17T10:15:03.057Z,6.03
2022-10-17T10:17:30.043Z,7.25
2022-10-17T10:19:57.107Z,3.42
2022-10-17T10:22:24.202Z,6.30
2022-10-17T10:25:10.036Z,10.40
2022-10-17T10:27:37.163Z,7.90
2022-10-17T10:30:04.316Z,6.10
2022-10-17T10:32:34.810Z,3.90
2022-10-17T10:35:04.046Z,9.45
2022-10-17T10:37:34.158Z,12.13
2022-10-17T10:40:07.691Z,7.25
2022-10-17T10:42:37.010Z,6.40
2022-10-17T10:45:04.080Z,4.78
2022-10-17T10:47:31.876Z,7.32
2022-10-17T10:50:10.068Z,5.55
2022-10-17T10:52:42.426Z,10.18
2022-10-17T10:55:22.324Z,7.40
2022-10-17T10:57:49.623Z,7.68
2022-10-17T11:00:17.431Z,7.70
2022-10-17T11:02:47.564Z,11.13
2022-10-17T11:08:04.526Z,5.10
2022-10-17T11:13:05.511Z,6.78
2022-10-17T11:15:35.948Z,4.95
2022-10-17T11:18:04.043Z,5.65
2022-10-17T11:20:33.865Z,6.55
2022-10-17T11:23:10.621Z,3.83
2022-10-17T11:25:38.405Z,4.53
2022-10-17T11:28:10.984Z,7.03
2022-10-17T11:33:18.167Z,4.13
2022-10-17T11:35:45.468Z,4.50
2022-10-17T11:38:23.207Z,7.25
2022-10-17T11:40:51.150Z,7.57
2022-10-17T11:43:18.147Z,6.38
2022-10-17T11:45:49.192Z,4.63
2022-10-17T11:48:18.971Z,9.57
2022-10-17T11:54:00.608Z,7.03
2022-10-17T11:56:30.220Z,9.85
2022-10-17T11:59:12.969Z,8.07
2022-10-17T12:01:41.895Z,4.20
2022-10-17T12:04:27.773Z,5.38
2022-10-17T12:07:01.059Z,4.35
2022-10-17T12:09:32.946Z,5.15
2022-10-17T12:12:00.678Z,4.68
2022-10-17T12:14:43.059Z,5.75
2022-10-17T12:17:32.429Z,5.32
2022-10-17T12:20:25.488Z,6.32
2022-10-17T12:22:56.348Z,7.50
2022-10-17T12:25:24.818Z,4.13
2022-10-17T12:27:51.877Z,7.80
2022-10-17T12:30:20.355Z,6.47
2022-10-17T12:33:13.691Z,5.15
2022-10-17T12:35:40.708Z,7.20
2022-10-17T12:38:20.071Z,8.98
2022-10-17T12:40:50.727Z,7.35
2022-10-17T12:43:17.724Z,11.05
2022-10-17T12:45:51.572Z,7.40
2022-10-17T12:48:34.037Z,10.52
2022-10-17T12:54:16.286Z,6.63
2022-10-17T12:56:44.835Z,6.25
2022-10-17T12:59:28.891Z,7.82
2022-10-17T13:01:57.421Z,4.78
2022-10-17T13:04:24.494Z,6.80
2022-10-17T13:06:58.659Z,4.90
2022-10-17T13:09:26.850Z,5.80
2022-10-17T13:11:54.329Z,6.32
2022-10-17T13:14:22.203Z,4.07
2022-10-17T13:16:53.510Z,5.95
2022-10-17T13:19:23.516Z,5.95
2022-10-17T13:22:00.953Z,5.22
2022-10-17T13:26:57.777Z,7.57
2022-10-17T13:29:25.774Z,8.20
2022-10-17T13:31:54.194Z,8.82
2022-10-17T13:34:22.385Z,5.95
2022-10-17T13:36:51.264Z,6.18
2022-10-17T13:39:23.165Z,7.03
2022-10-17T13:41:59.386Z,9.63
2022-10-17T13:44:27.204Z,8.82
2022-10-17T13:46:54.445Z,6.15
2022-10-17T13:49:23.321Z,4.97
2022-10-17T13:51:53.582Z,10.95
2022-10-17T13:54:32.720Z,3.97
2022-10-17T13:56:59.950Z,9.25
2022-10-17T13:59:29.399Z,8.00
2022-10-17T14:01:56.818Z,8.05
2022-10-17T14:04:23.838Z,7.65
2022-10-17T14:06:52.371Z,7.47
2022-10-17T14:09:24.486Z,9.45
2022-10-17T14:11:59.757Z,6.32
2022-10-17T14:14:26.782Z,6.57
2022-10-17T14:16:53.775Z,8.65
2022-10-17T14:19:27.483Z,7.38
2022-10-17T14:22:04.037Z,5.57
2022-10-17T14:24:31.558Z,4.50
2022-10-17T14:26:59.484Z,5.70
2022-10-17T14:29:29.555Z,6.55
2022-10-17T14:34:24.900Z,5.90
2022-10-17T14:36:52.267Z,5.60
2022-10-17T14:39:20.268Z,6.55
2022-10-17T14:41:47.325Z,6.25
2022-10-17T14:44:25.169Z,5.50
2022-10-17T14:46:53.841Z,8.60
2022-10-17T14:49:24.838Z,5.43
2022-10-17T14:52:19.118Z,8.00
2022-10-17T14:54:49.443Z,7.40
2022-10-17T14:57:39.880Z,7.95
2022-10-17T15:00:07.150Z,6.63
2022-10-17T15:02:34.446Z,5.50
2022-10-17T15:05:01.572Z,12.95
2022-10-17T15:07:29.389Z,7.78
2022-10-17T15:09:57.055Z,6.13
2022-10-17T15:12:25.205Z,6.45
2022-10-17T15:14:52.654Z,7.63
2022-10-17T15:17:21.292Z,10.02
2022-10-17T15:19:48.786Z,7.32
2022-10-17T15:22:16.183Z,10.77
2022-10-17T15:24:43.372Z,15.68
2022-10-17T15:27:20.482Z,5.05
2022-10-17T15:29:47.667Z,7.60
2022-10-17T15:32:14.722Z,11.10
2022-10-17T15:34:41.746Z,11.55
2022-10-17T15:37:15.232Z,7.10
2022-10-17T15:39:42.339Z,8.05
2022-10-17T15:42:10.544Z,7.95
2022-10-17T15:44:37.682Z,10.73
2022-10-17T15:47:04.698Z,6.40
2022-10-17T15:49:31.732Z,9.43
2022-10-17T15:51:58.806Z,9.25
2022-10-17T15:54:26.222Z,8.63
2022-10-17T15:56:53.953Z,7.30
2022-10-17T15:59:22.121Z,9.07
2022-10-17T16:01:49.160Z,7.75
2022-10-17T16:04:16.273Z,9.13
2022-10-17T16:06:43.621Z,8.48
2022-10-17T16:09:10.683Z,7.15
2022-10-17T16:11:41.717Z,10.20
2022-10-17T16:14:10.959Z,6.20
2022-10-17T16:16:37.971Z,6.25
2022-10-17T16:19:05.014Z,6.20
2022-10-17T16:21:33.095Z,5.43
2022-10-17T16:24:00.601Z,13.52
2022-10-17T16:26:27.990Z,9.50
2022-10-17T16:28:55.960Z,13.13
2022-10-17T16:31:23.972Z,5.00
2022-10-17T16:33:51.620Z,14.52
2022-10-17T16:36:18.782Z,6.47
2022-10-17T16:38:45.991Z,11.50
2022-10-17T16:41:23.195Z,12.00
2022-10-17T16:43:50.552Z,11.57
2022-10-17T16:46:17.604Z,9.32
2022-10-17T16:48:44.933Z,10.15
2022-10-17T16:51:12.325Z,9.65
2022-10-17T16:53:43.408Z,7.45
2022-10-17T16:56:14.384Z,10.43
2022-10-17T16:58:41.752Z,16.00
2022-10-17T17:01:10.187Z,13.18
2022-10-17T17:03:37.902Z,8.60
2022-10-17T17:06:06.538Z,7.00
2022-10-17T17:08:34.027Z,10.57
2022-10-17T17:11:01.067Z,10.30
2022-10-17T17:13:29.196Z,9.98
2022-10-17T17:16:03.187Z,18.15
2022-10-17T17:18:30.350Z,20.83
2022-10-17T17:21:01.151Z,20.83
2022-10-17T17:23:28.319Z,14.13
2022-10-17T17:25:59.159Z,10.30
2022-10-17T17:28:26.402Z,10.50
2022-10-17T17:30:53.678Z,15.93
2022-10-17T17:33:20.923Z,9.40
2022-10-17T17:35:48.058Z,8.05
2022-10-17T17:38:15.094Z,14.38
2022-10-17T17:40:50.744Z,12.13
2022-10-17T17:43:18.399Z,13.07
2022-10-17T17:45:45.417Z,20.30
2022-10-17T17:48:13.679Z,12.05
2022-10-17T17:50:40.972Z,10.63
2022-10-17T17:53:08.283Z,17.80
2022-10-17T17:55:35.572Z,11.13
2022-10-17T17:58:02.801Z,13.27
2022-10-17T18:00:29.878Z,15.15
2022-10-17T18:02:57.109Z,13.35
2022-10-17T18:05:24.204Z,12.75
2022-10-17T18:07:51.218Z,20.42
2022-10-17T18:10:18.243Z,15.93
2022-10-17T18:12:45.309Z,14.05
2022-10-17T18:15:12.357Z,60.42
2022-10-17T18:17:39.473Z,19.20
2022-10-17T18:20:06.902Z,16.85
2022-10-17T18:22:35.550Z,18.33
2022-10-17T18:25:02.874Z,15.82
2022-10-17T18:27:29.905Z,19.13
2022-10-17T18:29:56.913Z,26.90
2022-10-17T18:32:23.944Z,16.58
2022-10-17T18:34:50.992Z,21.48
2022-10-17T18:37:18.045Z,18.65
2022-10-17T18:39:45.316Z,20.67
2022-10-17T18:42:12.370Z,13.85
2022-10-17T18:44:39.492Z,16.70
2022-10-17T18:47:06.515Z,19.25
2022-10-17T18:49:33.674Z,13.32
2022-10-17T18:52:00.713Z,14.50
2022-10-17T18:54:27.818Z,15.10
2022-10-17T18:56:54.952Z,17.95
2022-10-17T18:59:22.029Z,21.75
2022-10-17T19:01:49.109Z,21.45
2022-10-17T19:04:16.533Z,26.17
2022-10-17T19:06:43.675Z,17.80
2022-10-17T19:09:11.394Z,21.60
2022-10-17T19:11:38.619Z,20.67
2022-10-17T19:14:08.115Z,12.80
2022-10-17T19:16:35.835Z,25.57
2022-10-17T19:19:06.922Z,16.10
2022-10-17T19:21:34.260Z,30.95
2022-10-17T19:24:02.161Z,15.82
2022-10-17T19:26:29.880Z,17.02
2022-10-17T19:28:57.044Z,20.70
2022-10-17T19:31:27.162Z,24.75
2022-10-17T19:36:27.532Z,19.98
2022-10-17T19:38:58.041Z,14.52
2022-10-17T19:41:25.250Z,12.20
2022-10-17T19:43:52.368Z,21.05
2022-10-17T19:46:20.955Z,18.55
2022-10-17T19:48:48.614Z,17.83
2022-10-17T19:51:16.100Z,21.52
2022-10-17T19:53:43.282Z,18.40
2022-10-17T19:56:10.669Z,21.95
2022-10-17T19:58:44.483Z,27.40
2022-10-17T20:01:12.067Z,27.60
2022-10-17T20:03:39.116Z,27.35
2022-10-17T20:06:06.282Z,27.88
2022-10-17T20:08:33.346Z,24.42
2022-10-17T20:11:14.082Z,23.73
2022-10-17T20:13:41.314Z,23.40
2022-10-17T20:16:08.846Z,22.85
2022-10-17T20:18:35.984Z,20.08
2022-10-17T20:21:04.543Z,23.52
2022-10-17T20:23:31.576Z,21.35
2022-10-17T20:26:13.385Z,24.42
2022-10-17T20:28:47.061Z,22.25
2022-10-17T20:31:14.333Z,19.08
2022-10-17T20:33:41.687Z,23.50
2022-10-17T20:36:09.858Z,22.77
2022-10-17T20:38:36.983Z,14.32
2022-10-17T20:41:08.083Z,18.35
2022-10-17T20:43:35.229Z,14.18
2022-10-17T20:46:15.463Z,15.10
2022-10-17T20:48:57.981Z,18.70
2022-10-17T20:51:26.433Z,22.75
2022-10-17T20:53:53.773Z,19.27
2022-10-17T20:56:25.095Z,21.10
2022-10-17T20:58:52.956Z,18.77
2022-10-17T21:01:20.230Z,20.10
2022-10-17T21:03:47.340Z,19.35
2022-10-17T21:06:14.629Z,21.98
2022-10-17T21:08:41.763Z,22.92
2022-10-17T21:11:09.547Z,16.92
2022-10-17T21:13:36.668Z,17.85
2022-10-17T21:16:11.043Z,17.48
2022-10-17T21:18:38.436Z,17.15
2022-10-17T21:21:09.464Z,19.48
2022-10-17T21:23:36.577Z,18.35
2022-10-17T21:26:04.071Z,17.48
2022-10-17T21:28:31.186Z,17.52
2022-10-17T21:31:07.344Z,19.83
2022-10-17T21:33:34.362Z,19.55
2022-10-17T21:36:01.551Z,17.45
2022-10-17T21:38:28.591Z,16.65
2022-10-17T21:40:57.992Z,18.27
2022-10-17T21:43:25.092Z,14.75
2022-10-17T21:45:52.107Z,16.70
2022-10-17T21:48:19.290Z,23.95
2022-10-17T21:50:46.404Z,20.15
2022-10-17T21:53:13.547Z,19.10
2022-10-17T21:55:40.695Z,19.58
2022-10-17T21:58:07.723Z,20.33
2022-10-17T22:00:34.747Z,29.85
2022-10-17T22:03:01.785Z,23.88
2022-10-17T22:05:30.191Z,19.90
2022-10-17T22:07:57.220Z,17.38
2022-10-17T22:10:24.260Z,19.67
2022-10-17T22:12:51.288Z,19.80
2022-10-17T22:15:18.320Z,19.73
2022-10-17T22:17:45.365Z,17.23
2022-10-17T22:20:12.372Z,18.75
2022-10-17T22:22:39.379Z,18.77
2022-10-17T22:25:06.664Z,17.38
2022-10-17T22:27:33.782Z,19.23
2022-10-17T22:30:00.801Z,19.67
2022-10-17T22:32:27.906Z,18.83
2022-10-17T22:34:54.931Z,21.63
2022-10-17T22:37:22.115Z,22.95
2022-10-17T22:39:49.291Z,15.38
2022-10-17T22:42:16.333Z,22.55
2022-10-17T22:44:44.225Z,18.30
2022-10-17T22:47:11.285Z,23.58
2022-10-17T22:49:38.287Z,22.73
2022-10-17T22:52:05.413Z,20.20
2022-10-17T22:54:32.433Z,21.67
2022-10-17T22:56:59.461Z,23.77
2022-10-17T22:59:26.469Z,16.85
2022-10-17T23:01:53.598Z,21.40
2022-10-17T23:04:20.640Z,20.88
2022-10-17T23:06:47.662Z,17.25
2022-10-17T23:09:14.708Z,21.80
2022-10-17T23:11:41.751Z,27.08
2022-10-17T23:14:08.763Z,17.85
2022-10-17T23:16:35.790Z,18.63
2022-10-17T23:19:02.845Z,17.52
2022-10-17T23:21:29.881Z,22.60
2022-10-17T23:23:56.910Z,14.27
2022-10-17T23:26:23.943Z,20.73
2022-10-17T23:28:53.834Z,11.20
2022-10-17T23:31:21.303Z,13.27
2022-10-17T23:33:48.733Z,11.93
2022-10-17T23:36:16.201Z,20.17
2022-10-17T23:38:43.548Z,12.98
2022-10-17T23:41:10.695Z,13.20
2022-10-17T23:43:37.743Z,18.60
2022-10-17T23:46:05.039Z,18.75
2022-10-17T23:48:32.096Z,11.13
2022-10-17T23:50:59.110Z,21.35
2022-10-17T23:53:26.120Z,11.38
2022-10-17T23:55:53.194Z,16.70
2022-10-17T23:58:20.247Z,18.92
